Time;durP1;ratioP1;P1;durP2;ratioP2;P2;SDS_P1;SDS_P2;PMS_P1;PMS_P2;Temp;Humidity;BMP_temperature;BMP_pressure;BME280_temperature;BME280_humidity;BME280_pressure;Samples;Min_cycle;Max_cycle;Signal;HPM_P1;HPM_P2
2022/07/27 00:02:04;;;;;;;4.53;3.10;;;20.30;77.80;;;19.25;100.00;95934.41;4926069;28;20062;-65
2022/07/27 00:04:29;;;;;;;7.60;3.22;;;20.30;77.90;;;19.23;100.00;95923.97;4945668;28;20099;-65
2022/07/27 00:06:55;;;;;;;6.45;3.40;;;20.20;77.50;;;19.21;99.94;95925.28;4929990;28;20363;-66
2022/07/27 00:09:21;;;;;;;7.78;2.65;;;20.20;76.50;;;19.18;97.48;95920.44;4912978;28;20031;-66
2022/07/27 00:11:47;;;;;;;3.50;2.83;;;20.10;75.30;;;19.15;96.62;95918.25;4944776;28;21730;-66
2022/07/27 00:14:12;;;;;;;4.50;3.05;;;20.10;73.80;;;19.11;94.82;95917.97;4947420;28;20574;-65
2022/07/27 00:16:38;;;;;;;6.13;2.75;;;20.10;74.20;;;19.07;95.72;95916.03;4912174;28;20035;-66
2022/07/27 00:19:04;;;;;;;3.97;2.70;;;20.00;74.80;;;19.03;94.29;95914.91;4945059;28;20074;-65
2022/07/27 00:21:30;;;;;;;6.88;3.10;;;20.00;74.50;;;18.98;94.52;95919.09;4947201;28;20075;-65
2022/07/27 00:23:55;;;;;;;5.82;3.13;;;20.00;74.80;;;18.95;94.81;95919.59;4945837;28;20071;-66
2022/07/27 00:26:21;;;;;;;4.63;3.00;;;19.90;75.40;;;18.89;95.24;95909.94;4947202;28;20067;-65
2022/07/27 00:28:47;;;;;;;5.47;3.28;;;19.80;75.40;;;18.87;95.24;95904.03;4929268;28;20038;-66
2022/07/27 00:31:13;;;;;;;5.43;2.78;;;19.80;75.60;;;18.84;96.33;95904.53;4943741;28;20144;-65
2022/07/27 00:33:39;;;;;;;3.85;3.03;;;19.80;75.60;;;18.82;95.50;95898.66;4929537;28;20070;-66
2022/07/27 00:36:05;;;;;;;4.47;3.00;;;19.80;75.70;;;18.79;96.04;95888.47;4927921;28;20073;-65
2022/07/27 00:38:31;;;;;;;4.40;2.90;;;19.80;76.00;;;18.78;96.28;95892.16;4961036;28;20042;-65
2022/07/27 00:40:56;;;;;;;5.45;2.90;;;19.80;76.10;;;18.78;96.83;95896.69;4929645;28;20130;-65
2022/07/27 00:43:22;;;;;;;3.95;2.78;;;19.70;76.00;;;18.78;96.49;95896.69;4945492;28;20130;-65
2022/07/27 00:45:48;;;;;;;5.45;2.70;;;19.80;75.80;;;18.75;95.97;95894.53;4912232;28;20114;-65
2022/07/27 00:48:14;;;;;;;4.18;2.67;;;19.70;75.40;;;18.73;94.84;95894.78;4945713;28;20055;-65
2022/07/27 00:50:41;;;;;;;7.00;2.60;;;19.70;74.60;;;18.74;94.74;95895.56;4928522;28;20039;-66
2022/07/27 00:53:08;;;;;;;4.47;2.63;;;19.80;74.30;;;18.71;93.28;95899.53;4945820;28;20109;-65
2022/07/27 00:55:33;;;;;;;4.30;2.40;;;19.70;73.90;;;18.72;93.71;95887.84;4946030;28;20077;-65
2022/07/27 00:58:00;;;;;;;6.28;2.67;;;19.70;73.60;;;18.69;93.13;95876.84;4911898;28;20423;-65
2022/07/27 01:00:29;;;;;;;3.28;2.20;;;19.70;73.70;;;18.66;93.55;95878.97;4943187;28;20035;-65
2022/07/27 01:02:54;;;;;;;6.95;2.40;;;19.70;73.40;;;18.67;92.38;95885.91;4960801;28;20039;-66
2022/07/27 01:05:20;;;;;;;4.15;2.20;;;19.70;72.70;;;18.65;91.08;95884.53;4926261;28;20432;-65
2022/07/27 01:07:47;;;;;;;4.10;2.00;;;19.60;72.60;;;18.61;91.96;95886.06;4923673;28;20063;-65
2022/07/27 01:10:13;;;;;;;3.88;2.33;;;19.60;72.80;;;18.60;91.82;95889.78;4909913;28;20043;-66
2022/07/27 01:12:39;;;;;;;5.05;1.98;;;19.60;73.00;;;18.57;90.44;95890.25;4928050;28;20041;-67
2022/07/27 01:15:06;;;;;;;4.20;2.10;;;19.60;72.00;;;18.53;90.88;95886.44;4914807;28;20039;-65
2022/07/27 01:17:32;;;;;;;2.63;2.17;;;19.50;73.00;;;18.49;91.49;95882.66;4943897;28;20459;-66
2022/07/27 01:19:58;;;;;;;2.55;1.85;;;19.50;73.00;;;18.46;91.40;95888.47;4909802;28;20224;-66
2022/07/27 01:22:24;;;;;;;4.30;2.20;;;19.50;72.70;;;18.44;91.02;95880.75;4930409;28;20463;-66
2022/07/27 01:24:49;;;;;;;3.85;1.98;;;19.40;73.20;;;18.43;91.18;95879.13;4928765;28;20533;-66
2022/07/27 01:27:15;;;;;;;5.97;2.42;;;19.40;73.40;;;18.43;91.52;95875.66;4930084;28;20074;-66
2022/07/27 01:29:41;;;;;;;3.25;2.53;;;19.40;73.70;;;18.40;92.06;95868.16;4927519;28;20079;-66
2022/07/27 01:32:07;;;;;;;3.40;2.03;;;19.40;73.60;;;18.38;91.89;95860.41;4946741;28;20042;-66
2022/07/27 01:34:33;;;;;;;4.05;2.20;;;19.40;73.70;;;18.34;91.83;95865.44;4946187;28;20108;-66
2022/07/27 01:37:00;;;;;;;5.20;2.42;;;19.40;73.30;;;18.33;91.80;95862.97;4929240;28;20652;-66
2022/07/27 01:39:26;;;;;;;5.35;2.47;;;19.40;73.30;;;18.31;91.15;95851.75;4944697;28;20203;-66
2022/07/27 01:41:51;;;;;;;3.22;2.53;;;19.40;73.10;;;18.28;91.13;95847.72;4942215;28;20468;-66
2022/07/27 01:44:17;;;;;;;5.13;2.60;;;19.30;73.40;;;18.25;92.12;95845.56;4943251;28;20613;-66
2022/07/27 01:46:43;;;;;;;7.03;2.80;;;19.20;73.30;;;18.22;91.51;95847.91;4959565;28;20036;-66
2022/07/27 01:49:08;;;;;;;5.28;2.40;;;19.20;73.20;;;18.19;91.92;95845.72;4944886;28;20069;-66
2022/07/27 01:51:34;;;;;;;6.43;2.47;;;19.10;73.50;;;18.15;92.29;95847.28;4942710;28;20075;-66
2022/07/27 01:54:00;;;;;;;4.10;2.60;;;19.10;74.00;;;18.11;92.35;95844.28;4945262;28;20129;-66
2022/07/27 01:56:26;;;;;;;4.50;2.63;;;19.10;74.30;;;18.08;92.36;95842.09;4944663;28;20047;-66
2022/07/27 01:58:51;;;;;;;6.93;2.75;;;19.10;74.30;;;18.07;93.41;95840.47;4912808;28;20514;-66
2022/07/27 02:01:17;;;;;;;5.60;2.95;;;19.10;74.70;;;18.04;92.81;95835.66;4911678;28;20487;-66
2022/07/27 02:03:43;;;;;;;4.20;2.40;;;19.10;74.80;;;18.02;93.96;95835.09;4928686;28;20119;-66
2022/07/27 02:06:08;;;;;;;3.40;2.70;;;19.00;74.90;;;18.01;94.69;95828.16;4944906;28;20051;-65
2022/07/27 02:08:34;;;;;;;5.50;2.65;;;19.00;75.20;;;18.00;94.55;95824.69;4960736;28;20059;-66
2022/07/27 02:13:46;;;;;;;6.10;2.70;;;19.10;74.70;;;18.00;93.81;95818.56;4957878;28;20189;-66
2022/07/27 02:16:13;;;;;;;4.20;2.92;;;19.10;73.60;;;18.00;93.41;95826.53;4944542;28;20051;-66
2022/07/27 02:18:39;;;;;;;4.25;2.63;;;19.10;73.80;;;17.97;93.31;95832.34;4945462;28;20525;-66
2022/07/27 02:21:05;;;;;;;7.13;2.90;;;19.00;74.30;;;17.95;93.05;95835.25;4928854;28;20039;-66
2022/07/27 02:23:31;;;;;;;5.15;2.75;;;19.00;74.00;;;17.94;93.05;95841.63;4944889;28;20070;-66
2022/07/27 02:25:56;;;;;;;4.20;2.65;;;19.00;74.40;;;17.95;93.92;95829.13;4911804;28;20063;-66
2022/07/27 02:28:22;;;;;;;3.03;2.53;;;19.00;74.60;;;17.95;94.20;95839.78;4944139;28;20049;-66
2022/07/27 02:30:48;;;;;;;10.27;8.63;;;19.00;74.80;;;17.95;93.50;95855.72;4926573;28;20407;-66
2022/07/27 02:33:14;;;;;;;10.68;8.10;;;19.00;74.70;;;17.94;93.68;95851.47;4943163;28;20126;-66
2022/07/27 02:35:39;;;;;;;7.03;3.30;;;19.00;74.90;;;17.94;94.22;95854.94;4926226;28;20518;-66
2022/07/27 02:38:05;;;;;;;4.38;2.75;;;19.10;75.00;;;17.93;94.73;95849.84;4941791;28;20883;-66
2022/07/27 02:40:31;;;;;;;10.57;7.60;;;19.10;75.00;;;17.93;94.60;95858.63;4944785;28;20146;-66
2022/07/27 02:42:57;;;;;;;6.03;3.80;;;19.00;75.20;;;17.93;94.80;95857.84;4941876;28;20073;-66
2022/07/27 02:45:22;;;;;;;5.45;2.72;;;19.10;74.90;;;17.93;93.57;95855.16;4943423;28;20066;-66
2022/07/27 02:47:48;;;;;;;4.03;2.30;;;19.10;74.20;;;17.92;92.76;95856.22;4942868;28;20050;-71
2022/07/27 02:50:14;;;;;;;6.28;2.17;;;19.00;73.70;;;17.91;92.59;95859.94;4942949;28;20043;-70
2022/07/27 02:52:40;;;;;;;2.90;2.15;;;19.10;73.50;;;17.91;93.13;95855.41;4930874;29;20043;-71
2022/07/27 02:55:06;;;;;;;2.97;2.00;;;19.10;73.20;;;17.90;93.05;95853.81;4931965;28;20733;-66
2022/07/27 02:57:34;;;;;;;3.40;2.00;;;19.10;73.30;;;17.93;93.07;95852.50;4919577;29;20043;-66
2022/07/27 03:00:00;;;;;;;3.20;1.90;;;19.10;73.50;;;17.95;92.00;95847.75;4915594;28;20058;-66
2022/07/27 03:02:26;;;;;;;5.03;2.00;;;19.10;72.90;;;17.97;91.96;95843.78;4938662;28;20036;-66
2022/07/27 03:04:52;;;;;;;3.38;1.75;;;19.10;72.80;;;17.99;92.71;95846.22;4934342;28;20130;-66
2022/07/27 03:07:17;;;;;;;2.42;1.80;;;19.10;72.90;;;18.00;91.73;95853.16;4939089;28;20039;-66
2022/07/27 03:09:43;;;;;;;4.07;2.22;;;19.10;72.90;;;18.03;91.59;95863.31;4930694;28;20435;-66
2022/07/27 03:12:09;;;;;;;4.22;2.90;;;19.20;73.10;;;18.03;91.43;95866.78;4949813;28;20577;-67
2022/07/27 03:14:35;;;;;;;4.60;3.22;;;19.10;72.90;;;18.03;92.37;95874.75;4952876;28;20066;-66
2022/07/27 03:17:00;;;;;;;6.05;2.70;;;19.10;73.00;;;18.01;93.02;95865.41;4921815;28;20073;-67
2022/07/27 03:19:26;;;;;;;4.93;2.47;;;19.10;73.80;;;17.99;93.00;95867.50;4948688;28;20408;-66
2022/07/27 03:21:52;;;;;;;5.90;2.28;;;19.10;74.20;;;17.95;93.16;95869.03;4964360;28;20131;-68
2022/07/27 03:24:17;;;;;;;5.85;4.60;;;19.10;74.00;;;17.90;94.35;95863.63;4950769;28;20047;-66
2022/07/27 03:26:45;;;;;;;6.38;2.85;;;19.00;75.30;;;17.88;95.17;95866.53;4935079;28;20047;-66
2022/07/27 03:29:12;;;;;;;7.03;5.47;;;19.00;75.80;;;17.88;95.05;95871.03;4935188;28;20398;-67
2022/07/27 03:31:37;;;;;;;7.68;4.45;;;19.00;76.00;;;17.85;95.49;95864.34;4958985;28;20058;-66
2022/07/27 03:34:03;;;;;;;6.13;2.53;;;19.00;75.90;;;17.80;94.79;95860.78;4933824;28;20039;-66
2022/07/27 03:36:29;;;;;;;7.55;2.28;;;18.90;74.90;;;17.79;94.90;95861.84;4950203;28;20039;-66
2022/07/27 03:38:55;;;;;;;4.63;2.50;;;18.80;74.30;;;17.75;94.53;95867.63;4917542;29;20078;-66
2022/07/27 03:41:20;;;;;;;7.05;3.53;;;18.90;75.00;;;17.73;94.56;95859.09;4950858;28;20046;-66
2022/07/27 03:43:46;;;;;;;8.90;4.97;;;18.90;75.00;;;17.74;94.68;95859.91;4935450;29;20062;-66
2022/07/27 03:46:12;;;;;;;6.95;4.28;;;18.90;74.90;;;17.72;94.40;95860.13;4935778;28;20747;-66
2022/07/27 03:48:39;;;;;;;6.45;3.30;;;18.90;74.00;;;17.72;93.69;95857.47;4935138;28;20047;-66
2022/07/27 03:51:05;;;;;;;8.15;4.50;;;18.90;73.90;;;17.72;93.62;95857.47;4910202;28;20546;-67
2022/07/27 03:53:31;;;;;;;6.68;2.83;;;19.00;74.00;;;17.73;93.83;95852.97;4942652;28;20643;-66
2022/07/27 03:55:57;;;;;;;10.10;6.50;;;18.90;73.60;;;17.73;93.13;95859.09;4950627;28;20039;-66
2022/07/27 03:58:22;;;;;;;6.68;2.95;;;18.80;73.10;;;17.74;92.51;95854.56;4949302;28;20950;-65
2022/07/27 04:00:49;;;;;;;5.10;2.50;;;18.90;73.20;;;17.74;92.06;95860.72;4920304;28;20071;-65
2022/07/27 04:03:15;;;;;;;4.43;2.40;;;18.90;73.00;;;17.72;92.89;95862.81;4917728;29;20044;-65
2022/07/27 04:05:40;;;;;;;5.93;2.30;;;18.90;73.10;;;17.71;92.51;95853.22;4932332;28;20027;-65
2022/07/27 04:08:06;;;;;;;6.10;2.05;;;18.90;72.80;;;17.69;91.92;95857.97;4954152;28;20042;-66
2022/07/27 04:10:32;;;;;;;4.28;2.25;;;18.80;72.80;;;17.70;91.72;95848.13;4926895;29;20032;-65
2022/07/27 04:12:57;;;;;;;6.68;2.25;;;18.90;73.00;;;17.71;92.84;95853.22;4920290;28;20038;-66
2022/07/27 04:15:23;;;;;;;5.75;2.40;;;18.90;73.50;;;17.71;92.61;95852.41;4952264;28;20065;-65
2022/07/27 04:17:49;;;;;;;4.55;2.33;;;18.80;73.40;;;17.70;91.90;95859.56;4952941;28;20695;-65
2022/07/27 04:20:15;;;;;;;5.47;2.38;;;18.90;73.30;;;17.70;92.20;95848.13;4930083;28;20145;-65
2022/07/27 04:22:41;;;;;;;4.72;2.33;;;18.90;73.30;;;17.71;91.85;95852.41;4920378;29;20038;-65
2022/07/27 04:25:07;;;;;;;8.65;2.47;;;18.90;73.10;;;17.71;93.02;95850.56;4935856;29;20291;-66
2022/07/27 04:27:33;;;;;;;6.85;2.40;;;19.00;73.30;;;17.71;93.18;95855.88;4951820;28;20035;-65
2022/07/27 04:29:59;;;;;;;4.43;2.25;;;19.00;73.40;;;17.73;92.91;95845.00;4933338;28;20050;-66
2022/07/27 04:32:24;;;;;;;4.72;2.35;;;19.00;73.40;;;17.75;92.69;95843.69;4943926;28;20035;-65
2022/07/27 04:34:50;;;;;;;3.40;1.90;;;19.00;73.40;;;17.77;93.39;95837.31;4951601;28;20126;-66
2022/07/27 04:37:16;;;;;;;6.18;2.50;;;19.00;73.30;;;17.78;92.43;95844.25;4967739;28;20603;-65
2022/07/27 04:39:42;;;;;;;3.65;1.98;;;19.10;73.10;;;17.78;92.56;95838.94;4943360;28;20062;-67
2022/07/27 04:42:07;;;;;;;7.32;2.88;;;19.10;73.20;;;17.77;92.29;95837.31;4943118;28;20043;-66
2022/07/27 04:44:33;;;;;;;7.35;2.40;;;19.00;73.10;;;17.78;93.15;95846.91;4951680;28;20507;-66
2022/07/27 04:46:59;;;;;;;5.75;2.50;;;19.00;73.00;;;17.77;92.38;95843.44;4935508;29;20061;-66
2022/07/27 04:49:25;;;;;;;4.95;2.17;;;19.00;73.20;;;17.77;92.81;95853.28;4924183;28;20030;-65
2022/07/27 04:51:51;;;;;;;5.63;2.10;;;19.00;72.90;;;17.78;92.25;95846.91;4939283;28;20043;-65
2022/07/27 04:54:16;;;;;;;4.20;2.30;;;19.00;72.90;;;17.79;92.29;95852.00;4950843;28;20035;-66
2022/07/27 04:56:42;;;;;;;6.22;4.28;;;19.10;72.70;;;17.83;91.55;95854.97;4953614;28;20054;-66
2022/07/27 04:59:08;;;;;;;6.80;3.60;;;19.10;72.50;;;17.86;91.47;95851.84;4957332;28;20042;-66
2022/07/27 05:01:33;;;;;;;5.18;2.22;;;19.20;72.00;;;17.87;90.55;95848.94;4942548;28;20114;-66
2022/07/27 05:03:59;;;;;;;3.53;1.70;;;19.20;70.30;;;17.91;89.60;95859.94;4945964;28;20051;-66
2022/07/27 05:06:25;;;;;;;3.58;1.60;;;19.20;70.10;;;17.92;89.06;95853.56;4951333;28;20518;-66
2022/07/27 05:08:50;;;;;;;5.22;1.90;;;19.20;70.20;;;17.95;89.44;95861.06;4947539;28;20043;-65
2022/07/27 05:11:16;;;;;;;3.10;1.60;;;19.30;69.90;;;17.97;88.53;95856.31;4943108;29;20032;-66
2022/07/27 05:13:42;;;;;;;4.40;2.00;;;19.30;69.50;;;18.02;88.55;95861.69;4951132;28;20086;-66
2022/07/27 05:16:09;;;;;;;5.95;1.90;;;19.40;69.40;;;18.05;87.09;95855.88;4950619;28;20043;-66
2022/07/27 05:18:38;;;;;;;7.35;2.05;;;19.40;69.10;;;18.08;86.54;95863.38;4944887;28;20077;-66
2022/07/27 05:21:04;;;;;;;2.72;2.30;;;19.40;68.60;;;18.11;87.10;95870.09;4935344;29;20081;-65
2022/07/27 05:23:30;;;;;;;4.32;1.75;;;19.50;68.60;;;18.14;86.84;95875.75;4934922;29;20094;-66
2022/07/27 05:25:56;;;;;;;3.88;2.03;;;19.50;67.80;;;18.18;85.24;95868.09;4918640;28;20043;-66
2022/07/27 05:28:21;;;;;;;5.15;1.92;;;19.60;67.00;;;18.22;84.05;95871.88;4916571;29;20083;-65
2022/07/27 05:30:47;;;;;;;4.30;2.00;;;19.70;66.80;;;18.28;83.99;95877.03;4941249;28;20032;-66
2022/07/27 05:33:13;;;;;;;2.85;1.55;;;19.80;66.20;;;18.36;83.54;95883.81;4931686;28;20495;-66
2022/07/27 05:35:38;;;;;;;2.90;1.40;;;19.80;66.50;;;18.43;83.79;95895.09;4931606;28;20063;-66
2022/07/27 05:38:04;;;;;;;2.97;1.50;;;19.90;66.40;;;18.51;83.26;95885.88;4917456;28;20043;-66
2022/07/27 05:40:30;;;;;;;2.78;1.48;;;20.10;65.80;;;18.57;82.22;95885.75;4942128;28;20180;-66
2022/07/27 05:42:56;;;;;;;4.63;1.92;;;20.10;65.10;;;18.65;83.34;95889.88;4918803;29;20102;-65
2022/07/27 05:45:22;;;;;;;4.43;1.67;;;20.20;65.70;;;18.71;82.38;95894.22;4934668;29;20411;-66
2022/07/27 05:47:47;;;;;;;2.53;1.80;;;20.20;65.60;;;18.78;82.52;95894.03;4935181;28;20105;-65
2022/07/27 05:50:14;;;;;;;6.03;1.63;;;20.30;65.00;;;18.85;82.08;95895.50;4968923;28;20098;-66
2022/07/27 05:52:39;;;;;;;4.13;2.00;;;20.50;64.40;;;18.93;81.81;95895.06;4919092;29;20114;-66
2022/07/27 05:55:05;;;;;;;11.13;1.70;;;20.50;64.80;;;19.02;81.37;95897.31;4918864;29;20137;-66
2022/07/27 05:57:31;;;;;;;3.53;1.83;;;20.60;64.20;;;19.08;81.45;95894.47;4934252;28;20046;-65
2022/07/27 05:59:59;;;;;;;2.58;1.60;;;20.70;64.60;;;19.15;81.06;95894.28;4963999;28;20039;-66
2022/07/27 06:02:26;;;;;;;4.88;1.38;;;20.70;65.00;;;19.23;81.45;95904.50;4935326;28;20067;-66
2022/07/27 06:04:53;;;;;;;5.22;1.63;;;20.80;65.20;;;19.31;81.88;95896.06;4934284;28;20419;-66
2022/07/27 06:10:04;;;;;;;3.92;1.83;;;21.00;65.10;;;19.43;80.95;95894.06;4936730;28;20042;-66
2022/07/27 06:12:36;;;;;;;3.03;1.70;;;21.00;63.80;;;19.46;79.93;95898.94;4922672;28;20039;-66
2022/07/27 06:15:03;;;;;;;3.97;1.55;;;21.10;63.40;;;19.49;80.23;95890.44;4953771;28;20054;-66
2022/07/27 06:17:28;;;;;;;4.07;2.03;;;21.10;63.20;;;19.51;79.73;95890.97;4934311;29;20503;-66
2022/07/27 06:19:54;;;;;;;4.45;1.65;;;21.10;63.40;;;19.55;79.79;95892.13;4933623;28;20035;-66
2022/07/27 06:22:20;;;;;;;5.78;1.60;;;21.10;63.00;;;19.58;80.25;95886.28;4948240;28;20096;-66
2022/07/27 06:24:46;;;;;;;3.13;2.00;;;21.20;63.40;;;19.64;79.06;95889.00;4940325;28;20052;-66
2022/07/27 06:27:12;;;;;;;5.15;1.80;;;21.20;63.00;;;19.71;79.37;95889.63;4937190;28;20148;-65
2022/07/27 06:29:37;;;;;;;3.95;1.70;;;21.40;62.70;;;19.77;78.75;95880.59;4918944;28;20039;-66
2022/07/27 06:32:04;;;;;;;2.88;1.90;;;21.50;62.40;;;19.83;79.45;95884.91;4953528;28;20419;-67
2022/07/27 06:34:29;;;;;;;2.90;1.63;;;21.50;62.70;;;19.89;79.45;95887.38;4954017;28;20035;-66
2022/07/27 06:36:57;;;;;;;6.03;1.83;;;21.70;62.50;;;19.96;79.29;95895.19;4952473;28;20082;-66
2022/07/27 06:39:22;;;;;;;5.93;2.63;;;21.70;62.80;;;20.05;79.57;95891.00;4953632;28;20087;-66
2022/07/27 06:41:48;;;;;;;4.93;1.85;;;21.80;62.60;;;20.14;78.91;95886.84;4937905;28;20031;-66
2022/07/27 06:44:14;;;;;;;5.45;1.98;;;22.00;62.50;;;20.26;77.75;95893.84;4953321;28;20046;-66
2022/07/27 06:46:41;;;;;;;4.47;1.90;;;22.20;60.00;;;20.37;77.40;95900.91;4948423;28;20074;-66
2022/07/27 06:49:07;;;;;;;2.30;1.52;;;22.30;60.30;;;20.47;76.97;95890.31;4921991;29;20587;-66
2022/07/27 06:51:32;;;;;;;2.10;1.73;;;22.40;59.70;;;20.61;76.45;95893.38;4922110;29;20035;-66
2022/07/27 06:53:58;;;;;;;4.78;1.80;;;22.60;59.70;;;20.72;75.77;95893.16;4937271;28;20086;-66
2022/07/27 06:56:24;;;;;;;4.07;2.15;;;22.70;58.50;;;20.84;74.63;95889.50;4919465;29;20031;-66
2022/07/27 06:58:50;;;;;;;5.00;2.13;;;22.80;57.80;;;20.98;74.41;95887.97;4963372;28;20451;-66
2022/07/27 07:01:16;;;;;;;3.65;1.63;;;23.20;58.20;;;21.16;75.23;95876.81;4937820;28;20522;-65
2022/07/27 07:03:42;;;;;;;4.75;1.67;;;23.30;58.30;;;21.30;73.25;95879.84;4937609;28;20050;-66
2022/07/27 07:06:08;;;;;;;3.35;1.80;;;23.30;56.00;;;21.36;73.06;95881.47;4923007;28;20055;-66
2022/07/27 07:08:34;;;;;;;4.28;1.80;;;23.10;56.50;;;21.40;72.56;95875.34;4968972;28;20019;-66
2022/07/27 07:11:00;;;;;;;3.47;1.45;;;23.30;56.90;;;21.46;72.37;95872.66;4937366;29;20126;-66
2022/07/27 07:13:26;;;;;;;2.42;1.50;;;23.50;56.80;;;21.57;72.05;95874.31;4921767;29;20110;-66
2022/07/27 07:15:51;;;;;;;3.85;1.77;;;23.60;56.30;;;21.69;71.79;95883.72;4920771;28;20182;-65
2022/07/27 07:18:17;;;;;;;3.90;2.10;;;23.80;55.90;;;21.80;70.95;95889.91;4960600;28;20043;-67
2022/07/27 07:20:43;;;;;;;5.70;2.08;;;23.90;54.90;;;21.91;71.06;95880.00;4921552;29;20043;-66
2022/07/27 07:23:09;;;;;;;3.50;1.55;;;23.90;54.80;;;22.00;70.59;95873.88;4933243;28;20028;-66
2022/07/27 07:25:35;;;;;;;2.63;1.70;;;24.00;55.20;;;22.14;70.13;95884.09;4941700;29;20047;-66
2022/07/27 07:28:01;;;;;;;6.72;1.80;;;24.20;54.60;;;22.26;69.80;95882.75;4933199;28;20529;-64
2022/07/27 07:30:27;;;;;;;2.60;1.88;;;24.40;53.70;;;22.37;68.71;95883.53;4933895;28;20074;-65
2022/07/27 07:32:52;;;;;;;5.57;1.80;;;24.50;53.30;;;22.49;68.58;95881.41;4937362;28;20027;-65
2022/07/27 07:35:18;;;;;;;2.55;1.50;;;24.60;52.70;;;22.62;68.67;95880.03;4968714;28;20039;-65
2022/07/27 07:37:44;;;;;;;4.00;1.50;;;24.80;53.10;;;22.80;68.84;95887.53;4952556;28;20039;-65
2022/07/27 07:40:10;;;;;;;3.08;1.80;;;25.20;53.20;;;23.01;66.87;95882.16;4920681;28;20035;-65
2022/07/27 07:42:53;;;;;;;8.55;1.63;;;25.40;50.70;;;23.19;64.45;95878.88;4935705;28;20523;-68
2022/07/27 07:45:20;;;;;;;4.88;1.48;;;25.60;50.20;;;23.37;65.37;95880.16;4970509;28;20077;-67
2022/07/27 07:47:46;;;;;;;3.10;1.60;;;25.80;49.30;;;23.53;64.80;95887.03;4936086;28;20050;-67
2022/07/27 07:50:11;;;;;;;4.05;1.63;;;26.10;49.10;;;23.72;63.63;95882.69;4920287;28;20410;-67
2022/07/27 07:52:37;;;;;;;3.72;1.95;;;26.30;47.60;;;23.95;63.11;95883.09;4951969;28;20525;-67
2022/07/27 07:55:04;;;;;;;5.63;4.38;;;26.60;47.60;;;24.13;62.93;95879.75;4944024;28;20586;-67
2022/07/27 07:57:29;;;;;;;3.22;1.73;;;26.60;47.40;;;24.25;62.56;95880.19;4936349;28;20035;-66
2022/07/27 07:59:55;;;;;;;3.97;1.70;;;26.40;48.20;;;24.35;60.67;95884.72;4935918;28;20031;-67
2022/07/27 08:02:21;;;;;;;2.33;1.50;;;26.60;46.00;;;24.47;59.85;95881.69;4952384;28;20110;-67
2022/07/27 08:04:47;;;;;;;3.40;1.58;;;26.70;45.00;;;24.61;58.73;95883.41;4911808;29;20506;-69
2022/07/27 08:07:12;;;;;;;3.33;1.30;;;27.00;44.40;;;24.79;58.15;95884.59;4920067;28;20039;-67
2022/07/27 08:09:38;;;;;;;4.35;1.30;;;27.30;43.60;;;24.97;57.73;95885.75;4948833;28;20507;-65
2022/07/27 08:12:05;;;;;;;2.08;1.30;;;27.50;43.90;;;25.22;58.12;95882.00;4916609;29;20105;-66
2022/07/27 08:14:32;;;;;;;6.75;1.50;;;28.10;44.10;;;25.51;57.76;95879.22;4967380;28;20066;-65
2022/07/27 08:16:57;;;;;;;5.18;1.38;;;28.20;43.20;;;25.69;56.86;95880.38;4919958;28;20070;-65
2022/07/27 08:19:23;;;;;;;3.17;1.98;;;28.30;42.70;;;25.85;56.09;95876.41;4951896;28;20082;-64
2022/07/27 08:21:49;;;;;;;2.45;1.45;;;28.50;42.80;;;25.98;56.28;95889.13;4936167;29;20448;-65
2022/07/27 08:24:15;;;;;;;5.25;1.50;;;28.50;43.00;;;26.13;56.12;95880.81;4926833;29;20098;-65
2022/07/27 08:26:40;;;;;;;2.75;1.23;;;28.70;44.20;;;26.31;56.00;95870.31;4951362;28;20101;-65
2022/07/27 08:29:06;;;;;;;4.75;1.17;;;28.90;42.80;;;26.46;54.46;95872.78;4919437;29;20788;-65
2022/07/27 08:31:32;;;;;;;2.63;1.27;;;29.10;40.30;;;26.51;53.50;95884.31;4951581;28;20054;-68
2022/07/27 08:33:57;;;;;;;5.57;1.30;;;29.00;40.40;;;26.62;52.78;95879.53;4973810;28;20035;-68
2022/07/27 08:36:23;;;;;;;3.13;1.30;;;29.20;39.80;;;26.78;53.39;95877.38;4919908;29;20054;-68
2022/07/27 08:38:49;;;;;;;3.33;1.30;;;29.60;41.10;;;26.90;52.92;95887.66;4919860;29;20494;-68
2022/07/27 08:41:15;;;;;;;2.83;1.25;;;29.80;39.90;;;27.05;52.41;95884.72;4935806;29;20036;-65
2022/07/27 08:43:41;;;;;;;2.88;1.17;;;30.00;39.10;;;27.15;51.19;95885.31;4922390;28;20057;-65
2022/07/27 08:46:07;;;;;;;4.25;1.52;;;30.10;37.70;;;27.32;51.06;95879.31;4954479;28;20052;-65
2022/07/27 08:48:33;;;;;;;2.28;1.40;;;30.50;38.10;;;27.57;51.93;95879.91;4935215;29;20155;-65
2022/07/27 08:50:59;;;;;;;3.13;1.60;;;31.00;39.30;;;27.87;51.48;95882.00;4935363;28;20031;-65
2022/07/27 08:53:24;;;;;;;4.05;1.33;;;31.50;38.50;;;28.20;51.25;95876.38;4932498;28;20559;-65
2022/07/27 08:55:50;;;;;;;5.05;1.30;;;31.80;37.00;;;28.49;50.56;95879.47;4961284;28;20562;-65
2022/07/27 08:58:16;;;;;;;3.70;1.55;;;31.80;37.10;;;28.67;49.31;95872.28;4918720;28;20075;-65
2022/07/27 09:00:47;;;;;;;2.38;1.30;;;31.60;36.30;;;28.84;46.48;95874.28;4951368;28;20527;-65
2022/07/27 09:03:13;;;;;;;2.85;1.23;;;31.90;35.80;;;28.90;47.69;95878.47;4920120;28;20070;-65
2022/07/27 09:05:43;;;;;;;2.63;1.08;;;31.60;35.70;;;28.92;45.48;95881.66;4942765;28;20530;-65
2022/07/27 09:08:13;;;;;;;5.72;1.67;;;31.50;36.30;;;28.94;46.98;95879.44;4947056;28;20054;-65
2022/07/27 09:10:38;;;;;;;2.53;1.17;;;31.30;36.20;;;28.96;46.37;95877.22;4932337;28;20036;-64
2022/07/27 09:13:25;;;;;;;3.45;1.23;;;31.50;36.20;;;28.97;43.51;95873.44;4939992;28;20085;-65
2022/07/27 09:15:59;;;;;;;3.95;1.33;;;31.50;35.60;;;28.98;43.92;95880.44;4941990;29;20043;-65
2022/07/27 09:18:28;;;;;;;2.05;1.17;;;31.30;35.90;;;28.98;44.31;95880.44;4931557;29;20058;-65
2022/07/27 09:21:22;;;;;;;2.90;1.20;;;31.20;36.40;;;28.96;42.71;95883.44;4947326;28;20464;-65
2022/07/27 09:23:50;;;;;;;5.30;1.33;;;31.20;35.60;;;28.93;44.65;95878.66;4939065;28;20478;-65
2022/07/27 09:26:24;;;;;;;4.43;1.67;;;31.30;35.70;;;28.96;44.24;95882.63;4963663;28;20032;-65
2022/07/27 09:28:59;;;;;;;2.97;1.27;;;31.40;36.80;;;29.00;43.86;95886.34;4954143;28;20035;-65
2022/07/27 09:31:25;;;;;;;2.92;1.13;;;31.30;36.40;;;29.00;44.83;95880.13;4907977;28;20043;-65
2022/07/27 09:34:01;;;;;;;2.42;1.23;;;31.10;36.80;;;28.93;44.02;95878.66;4931493;28;20050;-65
2022/07/27 09:36:28;;;;;;;2.83;1.10;;;30.90;37.30;;;28.86;44.93;95885.63;4900878;29;20039;-65
2022/07/27 09:39:01;;;;;;;5.07;1.30;;;30.70;37.70;;;28.79;44.50;95888.75;4928816;28;20410;-68
2022/07/27 09:41:37;;;;;;;2.00;1.10;;;30.60;38.10;;;28.72;44.13;95882.97;4916740;29;20040;-65
2022/07/27 09:44:03;;;;;;;4.78;1.40;;;30.70;36.10;;;28.67;44.20;95883.91;4917991;28;20578;-64
2022/07/27 09:46:34;;;;;;;2.08;1.15;;;30.90;35.30;;;28.60;41.26;95880.03;4934618;28;20038;-65
2022/07/27 09:49:01;;;;;;;2.03;1.20;;;30.70;34.50;;;28.68;43.69;95888.19;4918360;29;20066;-65
2022/07/27 09:51:26;;;;;;;4.90;1.10;;;31.20;36.70;;;28.82;43.19;95884.63;4926721;29;20063;-65
2022/07/27 09:53:53;;;;;;;3.00;1.00;;;31.40;34.30;;;28.94;42.86;95877.53;4950467;28;20062;-65
2022/07/27 09:56:28;;;;;;;3.55;1.02;;;31.60;34.00;;;29.08;40.78;95880.16;4951435;28;20610;-65
2022/07/27 09:58:59;;;;;;;4.07;1.23;;;31.90;33.70;;;29.31;41.55;95877.38;4945710;28;20098;-65
2022/07/27 10:01:26;;;;;;;1.40;0.93;;;32.30;32.60;;;29.62;41.52;95882.75;4941967;28;20039;-67
2022/07/27 10:03:58;;;;;;;1.40;0.90;;;32.90;32.10;;;29.91;37.78;95874.03;4928435;28;20054;-65
2022/07/27 10:06:24;;;;;;;1.38;1.10;;;33.20;30.30;;;30.15;40.66;95879.84;4933118;28;20115;-64
2022/07/27 10:08:51;;;;;;;3.63;1.10;;;33.70;31.00;;;30.43;40.39;95874.84;4934225;28;20027;-65
2022/07/27 10:11:18;;;;;;;2.25;1.30;;;33.90;31.40;;;30.62;39.63;95874.56;4950391;28;20043;-64
2022/07/27 10:13:44;;;;;;;3.28;1.17;;;33.90;30.10;;;30.71;39.47;95875.31;4946413;28;20054;-65
2022/07/27 10:16:20;;;;;;;2.35;1.20;;;33.60;29.80;;;30.88;37.49;95869.06;4933832;28;20472;-65
2022/07/27 10:19:04;;;;;;;3.20;1.10;;;34.00;30.50;;;31.09;35.41;95870.72;4935170;28;20533;-65
2022/07/27 10:21:30;;;;;;;3.38;1.40;;;34.00;28.80;;;31.14;38.09;95872.47;4951038;28;20042;-65
2022/07/27 10:24:01;;;;;;;4.50;1.10;;;34.30;29.80;;;31.28;37.46;95870.38;4957527;28;20067;-66